Greifswald — 3FEC8 — position and weather

sailwx.info

Track history (hours):
 
Tides and Currents Weather Stations Pressure Air Temp Water Temp Dewpoint Dewpoint Depression Visibility Wind Speed Wind Dir Waves Ship Positions

Greifswald

Last reported at 2017-Jul-23 02:30 UTC. Time now 2017-Jul-24 10:44 UTC.
Position N 44°58' E 032°34'.

Length 191 m; draft 6.6 m.

Type: Passenger vessel. MMSI: 370492000.

Date/timePositionNaut miles runAvg speedWind from/ knotsBaromVisibWave heightAir tempDewpointWater temp
2017-Jul-23 02:30N 44°58' E 032°34'815.8
2017-Jul-23 02:00N 45°04' E 032°26'612.6
2017-Jul-23 01:30N 45°09' E 032°20'611.7
2017-Jul-23 01:00N 45°13' E 032°15'611.8
2017-Jul-23 00:31N 45°17' E 032°09'611.8
2017-Jul-23 00:01N 45°22' E 032°03'510.6
2017-Jul-22 23:31N 45°26' E 031°58'510.0
2017-Jul-22 23:01N 45°29' E 031°54'611.9
2017-Jul-22 22:31N 45°34' E 031°48'815.4
2017-Jul-22 22:01N 45°39' E 031°40'815.4
2017-Jul-22 21:31N 45°45' E 031°32'815.5
2017-Jul-22 21:01N 45°50' E 031°25'815.4
2017-Jul-22 20:31N 45°56' E 031°17'815.5
2017-Jul-22 20:01N 46°02' E 031°10'815.2
2017-Jul-22 19:31N 46°08' E 031°03'815.1
2017-Jul-22 19:01N 46°13' E 030°56'714.9
2017-Jul-22 18:31N 46°17' E 030°47'611.2
2017-Jul-22 18:00N 46°20' E 030°39'1 1.6
2017-Jul-22 17:30N 46°21' E 030°39'0 0.0
2017-Jul-22 16:56N 46°21' E 030°39'0 0.0
2017-Jul-22 16:26N 46°21' E 030°39'0 0.0
2017-Jul-22 15:56N 46°21' E 030°39'0 0.0
2017-Jul-22 15:26N 46°21' E 030°39'0 0.0
2017-Jul-22 14:53N 46°21' E 030°39'0 0.0
2017-Jul-22 13:56N 46°21' E 030°39'0 0.0
2017-Jul-22 13:26N 46°21' E 030°39'0 0.0
2017-Jul-22 12:59N 46°21' E 030°39'0 0.0
2017-Jul-22 12:22N 46°21' E 030°39'0 0.0
2017-Jul-22 11:58N 46°21' E 030°39'0 0.0
2017-Jul-22 11:25N 46°21' E 030°39'0 0.0
2017-Jul-22 10:58N 46°21' E 030°39'0 0.0
2017-Jul-22 10:28N 46°21' E 030°39'0 0.0
2017-Jul-22 09:58N 46°21' E 030°39'0 0.0
2017-Jul-22 09:28N 46°21' E 030°39'0 0.0
2017-Jul-22 08:58N 46°21' E 030°39'0 0.0
2017-Jul-22 08:25N 46°21' E 030°39'0 0.0
2017-Jul-22 07:49N 46°21' E 030°39'0 0.0
2017-Jul-22 07:28N 46°21' E 030°39'0 0.0
2017-Jul-22 06:52N 46°21' E 030°39'0 0.0
2017-Jul-22 06:28N 46°21' E 030°39'0 0.0
2017-Jul-22 05:55N 46°21' E 030°39'0 0.0
2017-Jul-22 05:28N 46°21' E 030°39'0 0.0
2017-Jul-22 04:55N 46°21' E 030°39'0 0.0
2017-Jul-22 04:28N 46°21' E 030°39'0 0.0
2017-Jul-22 04:00N 46°21' E 030°39'1 1.6
2017-Jul-22 03:30N 46°20' E 030°40'4 8.2
2017-Jul-22 03:00N 46°17' E 030°44'815.1
2017-Jul-22 02:30N 46°10' E 030°46'714.8
2017-Jul-22 02:00N 46°03' E 030°47'510.9
2017-Jul-22 01:30N 45°57' E 030°48'4 8.2
2017-Jul-22 01:00N 45°53' E 030°48'811.6
2017-Jul-22 00:20N 45°45' E 030°46'411.9
2017-Jul-21 23:59N 45°41' E 030°45'611.8
2017-Jul-21 23:30N 45°36' E 030°44'  
2017-Jul-19 16:08N 46°10' E 030°46'215.6
2017-Jul-19 16:00N 46°11' E 030°46'714.4
2017-Jul-19 15:30N 46°18' E 030°43'3 1.6
2017-Jul-19 13:28N 46°21' E 030°39'0 0.0
2017-Jul-19 12:25N 46°21' E 030°39'0 0.0
2017-Jul-19 12:00N 46°21' E 030°39'0 0.0
2017-Jul-19 11:06N 46°21' E 030°39'0 0.0
2017-Jul-19 10:48N 46°21' E 030°39'0 0.0
2017-Jul-19 08:43N 46°21' E 030°39'0 0.0
2017-Jul-19 08:20N 46°21' E 030°39'0 0.0
2017-Jul-19 07:22N 46°21' E 030°39'0 0.0
2017-Jul-19 07:00N 46°21' E 030°39'0 0.0
2017-Jul-19 06:30N 46°21' E 030°39'0 0.0
2017-Jul-19 06:00N 46°21' E 030°39'0 0.0
2017-Jul-19 05:28N 46°21' E 030°39'0 0.0
2017-Jul-19 04:59N 46°21' E 030°39'0 0.4
2017-Jul-19 04:30N 46°20' E 030°39'3 7.1
2017-Jul-19 04:00N 46°19' E 030°43'714.0
2017-Jul-19 03:31N 46°17' E 030°53'815.0
2017-Jul-19 02:58N 46°13' E 031°03'715.8
2017-Jul-19 02:30N 46°07' E 031°10'815.5
2017-Jul-19 02:01N 46°02' E 031°18'714.1
2017-Jul-19 01:30N 45°57' E 031°25'612.7
2017-Jul-19 01:00N 45°52' E 031°32'612.7
2017-Jul-19 00:31N 45°47' E 031°38'  
2017-Jul-16 09:06N 42°36' E 039°50'215.3
2017-Jul-16 09:00N 42°37' E 039°48'1115.3
2017-Jul-16 08:15N 42°40' E 039°33'515.5
2017-Jul-16 07:57N 42°42' E 039°27'1115.4
2017-Jul-16 07:12N 42°46' E 039°12'40514.6
2017-Jul-15 03:26N 46°09' E 031°02'614.4
2017-Jul-15 03:01N 46°13' E 030°56'714.1
2017-Jul-15 02:30N 46°17' E 030°47'611.7
2017-Jul-15 02:00N 46°20' E 030°40'1 2.3
2017-Jul-15 01:30N 46°21' E 030°39'0 0.0
2017-Jul-15 01:00N 46°21' E 030°39'0 0.0
2017-Jul-15 00:28N 46°21' E 030°39'0 0.0
2017-Jul-15 00:00N 46°21' E 030°39'0 0.0
2017-Jul-14 23:30N 46°21' E 030°39'0 0.0
2017-Jul-14 23:00N 46°21' E 030°39'0 0.0
2017-Jul-14 22:29N 46°21' E 030°39'0 0.0
2017-Jul-14 21:59N 46°21' E 030°39'0 0.0
2017-Jul-14 21:30N 46°21' E 030°39'0 0.0
2017-Jul-14 20:59N 46°21' E 030°39'0 0.0
2017-Jul-14 20:28N 46°21' E 030°39'0 0.0
2017-Jul-14 20:00N 46°21' E 030°39'0 0.0
2017-Jul-14 19:30N 46°21' E 030°39'0 0.0
2017-Jul-14 18:55N 46°21' E 030°39'0 0.0
2017-Jul-14 18:30N 46°21' E 030°39'0 0.0
2017-Jul-14 17:57N 46°21' E 030°39'0 0.0
2017-Jul-14 17:28N 46°21' E 030°39'0 0.0
2017-Jul-14 16:02N 46°21' E 030°39'0 0.0
2017-Jul-14 15:52N 46°21' E 030°39'0 0.0
2017-Jul-14 14:21N 46°21' E 030°39'0 0.0
2017-Jul-14 12:52N 46°21' E 030°39'0 0.0
2017-Jul-14 12:29N 46°21' E 030°39'0 0.0
2017-Jul-14 12:00N 46°21' E 030°39'0 0.0
2017-Jul-14 11:31N 46°21' E 030°39'2 4.3
2017-Jul-14 11:00N 46°19' E 030°41'  
Track history (hours):
 
Tides and Currents Weather Stations Pressure Air Temp Water Temp Dewpoint Dewpoint Depression Visibility Wind Speed Wind Dir Waves Ship Positions

Greifswald

Last reported at 2017-Jul-23 02:30 UTC. Time now 2017-Jul-24 10:44 UTC.
Position N 44°58' E 032°34'.

Length 191 m; draft 6.6 m.

Type: Passenger vessel. MMSI: 370492000.

Date/timePositionNaut miles runAvg speedWind from/ knotsBaromVisibWave heightAir tempDewpointWater temp
2017-Jul-23 02:30N 44°58' E 032°34'815.8
2017-Jul-23 02:00N 45°04' E 032°26'612.6
2017-Jul-23 01:30N 45°09' E 032°20'611.7
2017-Jul-23 01:00N 45°13' E 032°15'611.8
2017-Jul-23 00:31N 45°17' E 032°09'611.8
2017-Jul-23 00:01N 45°22' E 032°03'510.6
2017-Jul-22 23:31N 45°26' E 031°58'510.0
2017-Jul-22 23:01N 45°29' E 031°54'611.9
2017-Jul-22 22:31N 45°34' E 031°48'815.4
2017-Jul-22 22:01N 45°39' E 031°40'815.4
2017-Jul-22 21:31N 45°45' E 031°32'815.5
2017-Jul-22 21:01N 45°50' E 031°25'815.4
2017-Jul-22 20:31N 45°56' E 031°17'815.5
2017-Jul-22 20:01N 46°02' E 031°10'815.2
2017-Jul-22 19:31N 46°08' E 031°03'815.1
2017-Jul-22 19:01N 46°13' E 030°56'714.9
2017-Jul-22 18:31N 46°17' E 030°47'611.2
2017-Jul-22 18:00N 46°20' E 030°39'1 1.6
2017-Jul-22 17:30N 46°21' E 030°39'0 0.0
2017-Jul-22 16:56N 46°21' E 030°39'0 0.0
2017-Jul-22 16:26N 46°21' E 030°39'0 0.0
2017-Jul-22 15:56N 46°21' E 030°39'0 0.0
2017-Jul-22 15:26N 46°21' E 030°39'0 0.0
2017-Jul-22 14:53N 46°21' E 030°39'0 0.0
2017-Jul-22 13:56N 46°21' E 030°39'0 0.0
2017-Jul-22 13:26N 46°21' E 030°39'0 0.0
2017-Jul-22 12:59N 46°21' E 030°39'0 0.0
2017-Jul-22 12:22N 46°21' E 030°39'0 0.0
2017-Jul-22 11:58N 46°21' E 030°39'0 0.0
2017-Jul-22 11:25N 46°21' E 030°39'0 0.0
2017-Jul-22 10:58N 46°21' E 030°39'0 0.0
2017-Jul-22 10:28N 46°21' E 030°39'0 0.0
2017-Jul-22 09:58N 46°21' E 030°39'0 0.0
2017-Jul-22 09:28N 46°21' E 030°39'0 0.0
2017-Jul-22 08:58N 46°21' E 030°39'0 0.0
2017-Jul-22 08:25N 46°21' E 030°39'0 0.0
2017-Jul-22 07:49N 46°21' E 030°39'0 0.0
2017-Jul-22 07:28N 46°21' E 030°39'0 0.0
2017-Jul-22 06:52N 46°21' E 030°39'0 0.0
2017-Jul-22 06:28N 46°21' E 030°39'0 0.0
2017-Jul-22 05:55N 46°21' E 030°39'0 0.0
2017-Jul-22 05:28N 46°21' E 030°39'0 0.0
2017-Jul-22 04:55N 46°21' E 030°39'0 0.0
2017-Jul-22 04:28N 46°21' E 030°39'0 0.0
2017-Jul-22 04:00N 46°21' E 030°39'1 1.6
2017-Jul-22 03:30N 46°20' E 030°40'4 8.2
2017-Jul-22 03:00N 46°17' E 030°44'815.1
2017-Jul-22 02:30N 46°10' E 030°46'714.8
2017-Jul-22 02:00N 46°03' E 030°47'510.9
2017-Jul-22 01:30N 45°57' E 030°48'4 8.2
2017-Jul-22 01:00N 45°53' E 030°48'811.6
2017-Jul-22 00:20N 45°45' E 030°46'411.9
2017-Jul-21 23:59N 45°41' E 030°45'611.8
2017-Jul-21 23:30N 45°36' E 030°44'  
2017-Jul-19 16:08N 46°10' E 030°46'215.6
2017-Jul-19 16:00N 46°11' E 030°46'714.4
2017-Jul-19 15:30N 46°18' E 030°43'3 1.6
2017-Jul-19 13:28N 46°21' E 030°39'0 0.0
2017-Jul-19 12:25N 46°21' E 030°39'0 0.0
2017-Jul-19 12:00N 46°21' E 030°39'0 0.0
2017-Jul-19 11:06N 46°21' E 030°39'0 0.0
2017-Jul-19 10:48N 46°21' E 030°39'0 0.0
2017-Jul-19 08:43N 46°21' E 030°39'0 0.0
2017-Jul-19 08:20N 46°21' E 030°39'0 0.0
2017-Jul-19 07:22N 46°21' E 030°39'0 0.0
2017-Jul-19 07:00N 46°21' E 030°39'0 0.0
2017-Jul-19 06:30N 46°21' E 030°39'0 0.0
2017-Jul-19 06:00N 46°21' E 030°39'0 0.0
2017-Jul-19 05:28N 46°21' E 030°39'0 0.0
2017-Jul-19 04:59N 46°21' E 030°39'0 0.4
2017-Jul-19 04:30N 46°20' E 030°39'3 7.1
2017-Jul-19 04:00N 46°19' E 030°43'714.0
2017-Jul-19 03:31N 46°17' E 030°53'815.0
2017-Jul-19 02:58N 46°13' E 031°03'715.8
2017-Jul-19 02:30N 46°07' E 031°10'815.5
2017-Jul-19 02:01N 46°02' E 031°18'714.1
2017-Jul-19 01:30N 45°57' E 031°25'612.7
2017-Jul-19 01:00N 45°52' E 031°32'612.7
2017-Jul-19 00:31N 45°47' E 031°38'  
2017-Jul-16 09:06N 42°36' E 039°50'215.3
2017-Jul-16 09:00N 42°37' E 039°48'1115.3
2017-Jul-16 08:15N 42°40' E 039°33'515.5
2017-Jul-16 07:57N 42°42' E 039°27'1115.4
2017-Jul-16 07:12N 42°46' E 039°12'40514.6
2017-Jul-15 03:26N 46°09' E 031°02'614.4
2017-Jul-15 03:01N 46°13' E 030°56'714.1
2017-Jul-15 02:30N 46°17' E 030°47'611.7
2017-Jul-15 02:00N 46°20' E 030°40'1 2.3
2017-Jul-15 01:30N 46°21' E 030°39'0 0.0
2017-Jul-15 01:00N 46°21' E 030°39'0 0.0
2017-Jul-15 00:28N 46°21' E 030°39'0 0.0
2017-Jul-15 00:00N 46°21' E 030°39'0 0.0
2017-Jul-14 23:30N 46°21' E 030°39'0 0.0
2017-Jul-14 23:00N 46°21' E 030°39'0 0.0
2017-Jul-14 22:29N 46°21' E 030°39'0 0.0
2017-Jul-14 21:59N 46°21' E 030°39'0 0.0
2017-Jul-14 21:30N 46°21' E 030°39'0 0.0
2017-Jul-14 20:59N 46°21' E 030°39'0 0.0
2017-Jul-14 20:28N 46°21' E 030°39'0 0.0
2017-Jul-14 20:00N 46°21' E 030°39'0 0.0
2017-Jul-14 19:30N 46°21' E 030°39'0 0.0
2017-Jul-14 18:55N 46°21' E 030°39'0 0.0
2017-Jul-14 18:30N 46°21' E 030°39'0 0.0
2017-Jul-14 17:57N 46°21' E 030°39'0 0.0
2017-Jul-14 17:28N 46°21' E 030°39'0 0.0
2017-Jul-14 16:02N 46°21' E 030°39'0 0.0
2017-Jul-14 15:52N 46°21' E 030°39'0 0.0
2017-Jul-14 14:21N 46°21' E 030°39'0 0.0
2017-Jul-14 12:52N 46°21' E 030°39'0 0.0
2017-Jul-14 12:29N 46°21' E 030°39'0 0.0
2017-Jul-14 12:00N 46°21' E 030°39'0 0.0
2017-Jul-14 11:31N 46°21' E 030°39'2 4.3
2017-Jul-14 11:00N 46°19' E 030°41'  

Dump ship's entire track history